Burlington, North Carolina
Current Conditions -  °F | °C
As of 1:54 PM on Saturday 25 Oct 2014 (Local Time) from KBUY Reporting Station
Clear Clear  
Wind Chill: 67°   Ceiling: Unl
Heat Index: 67°   Visibility: 10mi
Dew Point: 36°   Wind: 6mph
Humidity: 32%   Direction: 190°S
Pressure: 29.96"   Gusts: NA
Location:  36.1°N, 79.44°W
Report Text: KBUY 251754Z AUTO 19005KT 10SM CLR 19/02 A2996 RMK AO2 SLP142 T01940022 10206 20022 58025
Loading
Personal Weather Stations






























Interactive Weather Map
Tropical Storm Tracking
New forecast layout! Learn more

10-Day Weather Forecast

Advertisements
Track Severe Weather on mobile